This is the latest recevied weather packets stored in our database for station/object AI5ON. If no packets are shown the sender has not sent any weather packets the latest 10 day(s).
| Time | Temp. | Humidity | Pressure | Rain* | Wind** | Luminosity | Snow |
|---|---|---|---|---|---|---|---|
| 1788102378 | 31.67° C | 67% | 1017.3 hPa | 0 mm | - | 552 W/m² | - |
| 1788102073 | 32.22° C | 69% | 1017.4 hPa | 0 mm | - | 536 W/m² | - |
| 1788101772 | 32.22° C | 68% | 1017.4 hPa | 0 mm | - | 517 W/m² | - |
| 1788101467 | 31.67° C | 70% | 1017.2 hPa | 0 mm | - | 497 W/m² | - |
| 1788101163 | 30.56° C | 74% | 1017.5 hPa | 0 mm | - | 478 W/m² | - |
| 1788100859 | 30° C | 76% | 1017.3 hPa | 0 mm | - | 459 W/m² | - |
| 1788100554 | 30.56° C | 75% | 1017.5 hPa | 0 mm | - | 394 W/m² | - |
| 1788100253 | 30.56° C | 76% | 1017.5 hPa | 0 mm | - | 425 W/m² | - |
| 1788099948 | 30° C | 76% | 1017.4 hPa | 0 mm | - | 379 W/m² | - |
| 1788099643 | 30° C | 77% | 1017.4 hPa | 0 mm | - | 317 W/m² | - |
| 1788099338 | 30° C | 77% | 1017.4 hPa | 0 mm | - | 269 W/m² | - |
| 1788099038 | 30° C | 78% | 1017.3 hPa | 0 mm | - | 234 W/m² | - |
| 1788098733 | 30° C | 79% | 1017.4 hPa | 0 mm | - | 207 W/m² | - |
| 1788098429 | 29.44° C | 81% | 1017.3 hPa | 0 mm | - | 186 W/m² | - |
| 1788098124 | 28.33° C | 84% | 1017.3 hPa | 0 mm | - | 169 W/m² | - |
| 1788097819 | 28.89° C | 84% | 1017.3 hPa | 0 mm | - | 159 W/m² | - |
| 1788097515 | 28.33° C | 87% | 1017.4 hPa | 0 mm | - | 150 W/m² | - |
| 1788097210 | 27.78° C | 86% | 1017 hPa | 0 mm | - | 144 W/m² | - |
| 1788096906 | 27.78° C | 87% | 1017.1 hPa | 0 mm | - | 143 W/m² | - |
| 1788096600 | 27.78° C | 88% | 1017 hPa | 0 mm | - | 143 W/m² | - |
| 1788096297 | 27.22° C | 89% | 1017.3 hPa | 0 mm | - | 143 W/m² | - |
| 1788095996 | 26.67° C | 91% | 1016.9 hPa | 0 mm | - | 140 W/m² | - |
| 1788095695 | 26.67° C | 91% | 1016.9 hPa | 0 mm | - | 136 W/m² | - |
| 1788095390 | 26.67° C | 92% | 1017 hPa | 0 mm | - | 128 W/m² | - |
| 1788095086 | 26.67° C | 92% | 1016.9 hPa | 0 mm | - | 119 W/m² | - |
* Rain latest hour (hover to see other rain measurements)
** Current wind speed in m/s (hover to see current wind gust speed)